Pagrindinis puslapis
METAR-TAF:

METAR-TAF

Oro uostai :

Sandane, Norvegija

platuma: 61-50N, ilguma: 006-07E, Aukštis: 6 m

Dabartinis oras

Ataskaita buvo paskelbta 34 minutes, ne 11:20 UTC
Vėjas 5 kt iš Rytų/Pietryčių, svyruoja nuo Rytų/Šiaurės Rytų ir Pietų/Pietryčių
Temperatūra 13°C
Drėgmė 77%
Slėgis 1012 hPa
Matomumas 10 km arba daugiau
Mažai debesys ne aukštis 4000 ft
Su prošvaistėmis ne aukštis 5500 ft
lietus

METAR: ENSD 221120Z 11005KT 060V160 9999 -RA FEW040 BKN055 13/09 Q1012 RMK WIND 1138FT VRB06KT

Laikas: 13:54 (11:54 UTC)


TAF: trūkstamas

Orai ataskaitas ir orų prognozės (METAR, TAF).

turimą stotys yra geltonos ir raudonos taškus žemėlapyje.

Perkelti pele per norėdami pamatyti stoties vardą.

Tada spustelėkite, norėdami matyti oro stebėjimo ir prognozės.

Norėdami pakeisti žemėlapį: spustelėkite ant žalios mygtukų su juodo kryžiaus žemyn,; žalią mygtuką su brūkšneliu, jei norite nutolinti; arba žalių rodyklių gretimoms žemėlapius.


METAR-TAF: